createdAt,value
2017-07-07T00:01:23.286Z,19.50
2017-07-07T00:03:50.817Z,19.50
2017-07-07T00:06:19.125Z,19.60
2017-07-07T00:08:46.641Z,19.50
2017-07-07T00:11:14.252Z,19.60
2017-07-07T00:13:41.774Z,19.60
2017-07-07T00:16:09.297Z,19.60
2017-07-07T00:18:36.837Z,19.60
2017-07-07T00:21:04.362Z,19.60
2017-07-07T00:23:31.905Z,19.50
2017-07-07T00:26:00.189Z,19.60
2017-07-07T00:28:28.488Z,19.60
2017-07-07T00:30:56.008Z,19.60
2017-07-07T00:33:24.328Z,19.60
2017-07-07T00:35:51.849Z,19.60
2017-07-07T00:38:20.170Z,19.60
2017-07-07T00:40:47.694Z,19.50
2017-07-07T00:43:16.006Z,19.50
2017-07-07T00:45:43.533Z,19.50
2017-07-07T00:48:11.817Z,19.50
2017-07-07T00:50:39.358Z,19.50
2017-07-07T00:53:07.645Z,19.40
2017-07-07T00:55:35.178Z,19.40
2017-07-07T00:58:02.695Z,19.40
2017-07-07T01:00:30.233Z,19.30
2017-07-07T01:02:57.767Z,19.30
2017-07-07T01:05:26.081Z,19.20
2017-07-07T01:07:53.606Z,19.20
2017-07-07T01:10:21.894Z,19.20
2017-07-07T01:12:49.436Z,19.10
2017-07-07T01:15:17.730Z,19.10
2017-07-07T01:17:45.270Z,19.10
2017-07-07T01:20:13.553Z,19.10
2017-07-07T01:22:41.852Z,19.20
2017-07-07T01:25:09.364Z,19.20
2017-07-07T01:27:36.910Z,19.30
2017-07-07T01:30:04.438Z,19.40
2017-07-07T01:32:31.955Z,19.30
2017-07-07T01:35:00.275Z,19.30
2017-07-07T01:37:27.785Z,19.30
2017-07-07T01:39:55.325Z,19.30
2017-07-07T01:42:22.857Z,19.30
2017-07-07T01:44:50.402Z,19.20
2017-07-07T01:47:17.918Z,19.30
2017-07-07T01:49:45.466Z,19.30
2017-07-07T01:52:12.986Z,19.20
2017-07-07T01:54:40.509Z,19.20
2017-07-07T01:57:08.835Z,19.20
2017-07-07T01:59:36.355Z,19.20
2017-07-07T02:02:03.893Z,19.20
2017-07-07T02:04:32.181Z,19.40
2017-07-07T02:06:59.726Z,19.40
2017-07-07T02:09:28.023Z,19.40
2017-07-07T02:11:55.590Z,19.40
2017-07-07T02:14:23.124Z,19.30
2017-07-07T02:16:50.675Z,19.20
2017-07-07T02:19:18.998Z,19.10
2017-07-07T02:21:46.512Z,19.10
2017-07-07T02:24:14.043Z,19.10
2017-07-07T02:26:41.570Z,19.10
2017-07-07T02:29:09.119Z,19.10
2017-07-07T02:31:36.639Z,19.30
2017-07-07T02:34:04.198Z,19.40
2017-07-07T02:36:31.719Z,19.40
2017-07-07T02:38:59.245Z,19.30
2017-07-07T02:41:27.560Z,19.20
2017-07-07T02:43:55.091Z,19.20
2017-07-07T02:46:22.669Z,19.20
2017-07-07T02:48:50.188Z,19.20
2017-07-07T02:51:17.791Z,19.20
2017-07-07T02:53:45.305Z,19.20
2017-07-07T02:56:13.622Z,19.20
2017-07-07T02:58:41.153Z,19.20
2017-07-07T03:01:08.678Z,19.20
2017-07-07T03:03:36.225Z,19.30
2017-07-07T03:06:03.745Z,19.40
2017-07-07T03:08:31.284Z,19.40
2017-07-07T03:10:59.570Z,19.50
2017-07-07T03:13:27.106Z,19.50
2017-07-07T03:15:55.408Z,19.70
2017-07-07T03:18:22.958Z,19.70
2017-07-07T03:20:51.266Z,19.80
2017-07-07T03:23:18.791Z,19.80
2017-07-07T03:25:47.092Z,19.80
2017-07-07T03:28:14.620Z,19.80
2017-07-07T03:30:42.934Z,19.90
2017-07-07T03:33:10.454Z,19.90
2017-07-07T03:35:37.999Z,19.90
2017-07-07T03:38:06.290Z,20.00
2017-07-07T03:40:34.598Z,20.10
2017-07-07T03:43:02.122Z,20.10
2017-07-07T03:45:30.411Z,20.00
2017-07-07T03:47:58.714Z,20.10
2017-07-07T03:50:26.234Z,20.10
2017-07-07T03:52:54.542Z,20.10
2017-07-07T03:55:22.074Z,20.10
2017-07-07T03:57:50.372Z,20.00
2017-07-07T04:00:17.889Z,20.00
2017-07-07T04:02:45.438Z,20.00
2017-07-07T04:05:12.977Z,20.00
2017-07-07T04:07:40.553Z,20.00
2017-07-07T04:10:08.067Z,20.00
2017-07-07T04:12:35.598Z,19.70
2017-07-07T04:15:03.906Z,19.20
2017-07-07T04:20:04.294Z,19.00
2017-07-07T04:22:31.817Z,18.90
2017-07-07T04:24:59.381Z,19.10
2017-07-07T04:27:26.905Z,19.30
2017-07-07T04:29:55.186Z,19.80
2017-07-07T04:32:22.716Z,19.80
2017-07-07T04:34:50.231Z,20.10
2017-07-07T04:37:17.790Z,21.80
2017-07-07T04:39:45.319Z,25.30
2017-07-07T04:42:12.859Z,26.20
2017-07-07T04:44:41.162Z,22.70
2017-07-07T04:47:08.713Z,22.70
2017-07-07T04:49:36.244Z,21.80
2017-07-07T04:52:03.762Z,21.40
2017-07-07T04:54:31.318Z,21.20
2017-07-07T04:56:58.845Z,21.00
2017-07-07T04:59:27.170Z,22.00
2017-07-07T05:01:54.683Z,22.00
2017-07-07T05:04:22.227Z,24.00
2017-07-07T05:06:50.524Z,25.80
2017-07-07T05:09:18.073Z,25.70
2017-07-07T05:11:46.359Z,27.70
2017-07-07T05:14:13.898Z,27.60
2017-07-07T05:16:42.205Z,24.60
2017-07-07T05:19:09.733Z,24.60
2017-07-07T05:21:38.997Z,22.00
2017-07-07T05:24:06.521Z,21.90
2017-07-07T05:26:34.077Z,21.50
2017-07-07T05:29:01.597Z,21.90
2017-07-07T05:31:29.140Z,24.00
2017-07-07T05:33:56.674Z,24.00
2017-07-07T05:36:24.201Z,22.90
2017-07-07T05:38:51.746Z,22.00
2017-07-07T05:41:20.034Z,21.00
2017-07-07T05:43:47.586Z,20.90
2017-07-07T05:46:15.874Z,20.50
2017-07-07T05:48:44.245Z,20.40
2017-07-07T05:51:11.771Z,20.40
2017-07-07T05:53:39.331Z,20.30
2017-07-07T05:56:06.850Z,20.30
2017-07-07T05:58:34.376Z,20.30
2017-07-07T06:01:01.929Z,20.40
2017-07-07T06:03:30.229Z,20.60
2017-07-07T06:05:57.795Z,20.60
2017-07-07T06:08:25.313Z,21.00
2017-07-07T06:10:52.853Z,21.20
2017-07-07T06:13:20.378Z,21.50
2017-07-07T06:15:47.514Z,21.50
2017-07-07T06:18:15.276Z,21.90
2017-07-07T06:20:42.378Z,21.90
2017-07-07T06:23:09.916Z,22.60
2017-07-07T06:25:37.442Z,23.20
2017-07-07T06:28:04.976Z,23.60
2017-07-07T06:30:33.261Z,24.80
2017-07-07T06:33:01.567Z,24.00
2017-07-07T06:35:29.090Z,24.00
2017-07-07T06:37:56.652Z,22.70
2017-07-07T06:40:24.244Z,21.70
2017-07-07T06:42:51.766Z,21.20
2017-07-07T06:45:20.085Z,21.30
2017-07-07T06:47:47.605Z,21.30
2017-07-07T06:50:15.134Z,21.80
2017-07-07T06:52:42.650Z,22.20
2017-07-07T06:55:10.193Z,22.70
2017-07-07T06:57:37.705Z,22.90
2017-07-07T07:00:05.244Z,22.80
2017-07-07T07:02:32.761Z,22.60
2017-07-07T07:05:00.285Z,22.70
2017-07-07T07:07:27.824Z,22.70
2017-07-07T07:09:55.350Z,22.80
2017-07-07T07:12:22.888Z,22.60
2017-07-07T07:14:51.185Z,22.20
2017-07-07T07:17:18.717Z,22.20
2017-07-07T07:19:49.702Z,22.00
2017-07-07T07:22:17.245Z,21.70
2017-07-07T07:24:44.775Z,21.60
2017-07-07T07:27:12.293Z,21.40
2017-07-07T07:29:39.853Z,21.40
2017-07-07T07:32:07.371Z,21.20
2017-07-07T07:34:34.910Z,21.10
2017-07-07T07:37:02.440Z,21.00
2017-07-07T07:39:30.008Z,21.00
2017-07-07T07:41:57.523Z,20.90
2017-07-07T07:44:25.041Z,20.80
2017-07-07T07:46:53.362Z,20.50
2017-07-07T07:49:21.851Z,20.50
2017-07-07T07:51:49.406Z,20.50
2017-07-07T07:54:16.922Z,20.50
2017-07-07T07:56:45.257Z,21.00
2017-07-07T07:59:12.790Z,20.90
2017-07-07T08:01:40.333Z,21.20
2017-07-07T08:04:07.857Z,21.40
2017-07-07T08:06:35.421Z,21.30
2017-07-07T08:09:02.945Z,21.50
2017-07-07T08:11:30.466Z,21.60
2017-07-07T08:13:58.014Z,21.60
2017-07-07T08:16:26.298Z,21.50
